Time;durP1;ratioP1;P1;durP2;ratioP2;P2;SDS_P1;SDS_P2;PMS_P1;PMS_P2;Temp;Humidity;BMP_temperature;BMP_pressure;BME280_temperature;BME280_humidity;BME280_pressure;Samples;Min_cycle;Max_cycle;Signal;HPM_P1;HPM_P2
2023/11/09 00:04:44;;;;;;;3.35;1.77;;;;;;;9.70;57.30;99153.41;10511401;28;20132;-62
2023/11/09 00:09:46;;;;;;;1.17;0.70;;;;;;;9.69;56.86;99135.25;10511717;28;20052;-62
2023/11/09 00:14:49;;;;;;;1.00;0.80;;;;;;;9.78;56.98;99132.81;10511267;28;20066;-62
2023/11/09 00:19:52;;;;;;;1.00;0.80;;;;;;;9.74;56.99;99120.09;10511041;28;20040;-61
2023/11/09 00:24:54;;;;;;;0.50;0.50;;;;;;;9.63;56.71;99111.19;10512295;28;20060;-61
2023/11/09 00:29:56;;;;;;;1.35;1.00;;;;;;;9.64;57.10;99107.66;10509278;28;20472;-61
2023/11/09 00:34:58;;;;;;;1.33;0.80;;;;;;;9.61;57.20;99099.16;10519697;28;20496;-61
2023/11/09 00:40:00;;;;;;;1.00;0.88;;;;;;;9.55;57.26;99099.59;10501824;28;20074;-61
2023/11/09 00:45:03;;;;;;;0.82;0.75;;;;;;;9.58;57.24;99087.16;10513232;28;20035;-61
2023/11/09 00:50:05;;;;;;;1.38;0.90;;;;;;;9.64;57.10;99084.16;10491683;28;20399;-61
2023/11/09 00:55:07;;;;;;;2.60;0.85;;;;;;;9.60;56.60;99068.81;10511923;28;20047;-61
2023/11/09 01:00:10;;;;;;;1.50;0.80;;;;;;;9.67;56.74;99064.03;10517617;28;20051;-61
2023/11/09 01:05:12;;;;;;;1.63;0.95;;;;;;;9.70;56.71;99053.34;10517636;28;20149;-61
2023/11/09 01:10:14;;;;;;;0.93;0.80;;;;;;;9.82;56.64;99053.34;10515344;28;20040;-61
2023/11/09 01:15:16;;;;;;;1.13;0.80;;;;;;;9.79;56.24;99040.47;10497734;28;20169;-61
2023/11/09 01:20:18;;;;;;;2.17;1.40;;;;;;;9.81;56.46;99038.59;10500203;28;20193;-62
2023/11/09 01:25:20;;;;;;;1.20;0.88;;;;;;;9.81;56.48;99030.75;10502798;28;20431;-62
2023/11/09 01:30:22;;;;;;;2.13;1.10;;;;;;;9.74;56.33;99024.31;10504386;28;20061;-62
2023/11/09 01:35:24;;;;;;;0.73;0.73;;;;;;;9.79;56.68;99001.31;10528568;27;20043;-62
2023/11/09 01:40:26;;;;;;;4.75;0.93;;;;;;;9.69;56.29;98996.88;10509467;28;20067;-62
2023/11/09 01:45:28;;;;;;;1.17;0.88;;;;;;;9.75;56.24;98994.63;10494280;28;20062;-62
2023/11/09 01:50:31;;;;;;;2.92;1.00;;;;;;;9.83;56.24;98976.63;10515056;28;20641;-62
2023/11/09 01:55:34;;;;;;;1.48;1.15;;;;;;;9.86;56.12;98980.81;10508956;28;20530;-62
2023/11/09 02:00:38;;;;;;;1.45;0.80;;;;;;;9.82;56.01;98966.31;10478081;28;20804;-62
2023/11/09 02:05:41;;;;;;;2.00;0.90;;;;;;;9.75;56.11;98962.50;10495003;28;21402;-62
2023/11/09 02:10:43;;;;;;;1.15;0.80;;;;;;;9.63;56.15;98965.00;10515252;28;20052;-62
2023/11/09 02:15:45;;;;;;;1.08;0.98;;;;;;;9.69;56.04;98962.94;10513325;28;20068;-62
2023/11/09 02:20:51;;;;;;;2.35;1.20;;;;;;;9.78;56.15;98960.50;10495693;28;20102;-62
2023/11/09 02:25:53;;;;;;;2.35;0.85;;;;;;;9.82;56.12;98951.50;10513978;28;20060;-62
2023/11/09 02:30:55;;;;;;;1.02;0.80;;;;;;;9.85;56.08;98947.84;10497246;28;20289;-62
2023/11/09 02:35:57;;;;;;;1.70;0.93;;;;;;;9.83;56.29;98936.66;10495823;28;20059;-62
2023/11/09 02:40:59;;;;;;;2.22;0.82;;;;;;;9.75;56.35;98931.16;10514607;28;20055;-60
2023/11/09 02:46:02;;;;;;;2.80;1.00;;;;;;;9.75;56.25;98924.13;10512415;28;20066;-62
2023/11/09 02:51:06;;;;;;;0.82;0.80;;;;;;;9.75;56.02;98921.53;10495936;28;20044;-62
2023/11/09 02:56:08;;;;;;;2.17;1.20;;;;;;;9.81;55.95;98915.06;10511662;28;20146;-62
2023/11/09 03:01:10;;;;;;;1.02;0.88;;;;;;;9.73;55.72;98893.88;10496658;28;20044;-62
2023/11/09 03:06:14;;;;;;;3.33;1.30;;;;;;;9.67;55.39;98883.88;10493393;28;20040;-61
2023/11/09 03:11:20;;;;;;;1.27;0.80;;;;;;;9.70;56.04;98876.66;10513125;28;20042;-61
2023/11/09 03:16:22;;;;;;;1.10;0.90;;;;;;;9.72;55.88;98879.16;10510956;28;20145;-61
2023/11/09 03:21:24;;;;;;;0.95;0.82;;;;;;;9.67;56.10;98886.50;10511761;28;20079;-61
2023/11/09 03:26:26;;;;;;;1.80;1.00;;;;;;;9.79;56.43;98883.00;10494004;28;20340;-62
2023/11/09 03:31:28;;;;;;;2.88;1.00;;;;;;;9.83;56.70;98872.19;10494616;28;20040;-61
2023/11/09 03:36:30;;;;;;;1.77;1.00;;;;;;;9.82;56.93;98857.47;10494769;28;20286;-61
2023/11/09 03:41:32;;;;;;;3.92;1.25;;;;;;;9.75;57.04;98860.66;10473503;28;20136;-61
2023/11/09 03:46:34;;;;;;;4.50;1.10;;;;;;;9.65;57.12;98852.63;10497393;28;20060;-61
2023/11/09 03:51:36;;;;;;;1.77;1.00;;;;;;;9.57;57.68;98857.56;10503393;28;20044;-61
2023/11/09 03:56:38;;;;;;;1.80;0.95;;;;;;;9.52;57.74;98849.25;10500125;28;20055;-61
2023/11/09 04:01:40;;;;;;;0.88;0.65;;;;;;;9.46;57.65;98842.69;10499447;28;20370;-62
2023/11/09 04:06:42;;;;;;;1.58;1.15;;;;;;;9.48;57.74;98832.16;10500384;28;20450;-61
2023/11/09 04:11:45;;;;;;;1.00;0.90;;;;;;;9.41;57.83;98820.47;10507572;28;20044;-61
2023/11/09 04:16:47;;;;;;;1.80;1.20;;;;;;;9.31;57.90;98822.94;10506586;28;20378;-61
2023/11/09 04:21:50;;;;;;;1.67;1.00;;;;;;;9.30;57.89;98818.63;10509780;28;20036;-61
2023/11/09 04:26:53;;;;;;;1.02;0.90;;;;;;;9.29;57.82;98814.38;10486162;28;20048;-61
2023/11/09 04:31:55;;;;;;;1.67;0.90;;;;;;;9.31;57.91;98811.66;10522214;28;20040;-61
2023/11/09 04:36:59;;;;;;;1.30;1.00;;;;;;;9.26;58.16;98798.94;10520921;28;20048;-61
2023/11/09 04:42:04;;;;;;;1.77;0.80;;;;;;;9.43;58.04;98801.16;10504171;28;20040;-62
2023/11/09 04:47:11;;;;;;;1.35;1.02;;;;;;;9.37;58.31;98805.97;10517092;28;20458;-62
2023/11/09 04:52:15;;;;;;;2.47;0.98;;;;;;;9.27;58.42;98795.41;10498502;28;20046;-62
2023/11/09 05:07:59;;;;;;;1.42;0.98;;;;;;;9.38;58.46;98808.47;10516149;28;20448;-62
2023/11/09 05:13:01;;;;;;;2.10;1.02;;;;;;;9.34;58.68;98806.22;10518514;28;20130;-62
2023/11/09 05:18:04;;;;;;;2.53;1.20;;;;;;;9.34;58.74;98807.03;10517519;28;20130;-61
2023/11/09 05:23:08;;;;;;;1.13;0.90;;;;;;;9.31;58.90;98798.59;10514701;28;20047;-62
2023/11/09 05:28:10;;;;;;;1.58;1.02;;;;;;;9.38;58.90;98797.22;10516889;28;20101;-62
2023/11/09 05:33:12;;;;;;;2.67;1.30;;;;;;;9.40;58.88;98796.16;10515093;28;20178;-62
2023/11/09 05:38:14;;;;;;;0.82;0.73;;;;;;;9.27;59.05;98778.91;10500783;28;20055;-62
2023/11/09 05:43:17;;;;;;;2.10;1.00;;;;;;;9.34;58.91;98772.31;10514937;28;20089;-62
2023/11/09 05:48:19;;;;;;;0.77;0.73;;;;;;;9.33;58.86;98771.47;10516528;28;20060;-62
2023/11/09 05:53:21;;;;;;;1.95;0.90;;;;;;;9.37;58.83;98780.72;10531363;27;20121;-62
2023/11/09 05:58:23;;;;;;;0.90;0.90;;;;;;;9.37;58.84;98779.88;10516629;28;20070;-62
2023/11/09 06:03:25;;;;;;;1.70;0.95;;;;;;;9.24;58.98;98774.72;10514355;28;20042;-62
2023/11/09 06:08:28;;;;;;;1.27;1.00;;;;;;;9.36;58.91;98766.00;10498321;28;20048;-62
2023/11/09 06:13:30;;;;;;;0.88;0.85;;;;;;;9.25;58.93;98760.75;10515735;28;20133;-62
2023/11/09 06:18:32;;;;;;;0.88;0.80;;;;;;;9.28;58.89;98759.72;10513711;28;20407;-62
2023/11/09 06:23:35;;;;;;;1.60;1.02;;;;;;;9.27;58.85;98744.97;10512447;28;20112;-62
2023/11/09 06:28:37;;;;;;;1.63;0.90;;;;;;;9.31;58.87;98755.09;10514870;28;20718;-62
2023/11/09 06:33:39;;;;;;;1.80;1.00;;;;;;;9.32;58.96;98748.91;10512603;28;20063;-62
2023/11/09 06:38:41;;;;;;;1.48;1.10;;;;;;;9.23;59.58;98749.59;10512610;28;20040;-62
2023/11/09 06:43:42;;;;;;;1.02;0.93;;;;;;;9.23;59.98;98756.59;10514168;28;20524;-62
2023/11/09 06:48:46;;;;;;;1.45;1.10;;;;;;;9.34;59.96;98761.88;10512300;28;20127;-62
2023/11/09 06:53:50;;;;;;;1.55;0.88;;;;;;;9.12;60.90;98765.19;10511220;28;20420;-62
2023/11/09 06:58:53;;;;;;;1.20;1.10;;;;;;;9.10;61.11;98767.06;10513891;28;20456;-62
2023/11/09 07:03:55;;;;;;;4.47;1.45;;;;;;;9.12;61.31;98775.63;10511858;28;20215;-62
2023/11/09 07:08:57;;;;;;;3.63;1.08;;;;;;;9.02;61.89;98785.03;10512844;28;20404;-62
2023/11/09 07:14:01;;;;;;;3.00;0.93;;;;;;;9.04;62.54;98787.53;10512778;28;20116;-62
2023/11/09 07:19:03;;;;;;;1.52;1.17;;;;;;;9.02;62.30;98790.25;10494385;28;20128;-63
2023/11/09 07:24:06;;;;;;;0.93;0.82;;;;;;;8.91;62.97;98782.38;10490976;28;20837;-63
2023/11/09 07:29:09;;;;;;;1.13;0.90;;;;;;;8.95;63.11;98794.25;10513729;28;20048;-63
2023/11/09 07:34:11;;;;;;;2.17;1.23;;;;;;;8.97;63.25;98800.19;10510621;28;20130;-62
2023/11/09 07:39:13;;;;;;;1.63;0.90;;;;;;;9.08;63.09;98807.22;10510928;28;20044;-68
2023/11/09 07:44:15;;;;;;;0.80;0.80;;;;;;;9.16;63.14;98805.75;10514918;28;20044;-68
2023/11/09 07:49:17;;;;;;;0.80;0.80;;;;;;;9.18;63.31;98803.06;10516085;28;20052;-68
2023/11/09 07:54:21;;;;;;;2.58;0.88;;;;;;;9.20;63.39;98809.00;10513566;28;20052;-68
2023/11/09 07:59:23;;;;;;;1.08;0.82;;;;;;;9.21;63.57;98806.28;10520503;28;20487;-68
2023/11/09 08:04:27;;;;;;;1.17;0.88;;;;;;;9.22;63.52;98823.56;10488297;28;20044;-68
2023/11/09 08:09:30;;;;;;;3.65;0.80;;;;;;;9.16;63.90;98824.00;10521139;28;20139;-68
2023/11/09 08:14:32;;;;;;;3.50;0.73;;;;;;;9.28;63.58;98830.16;10523560;28;20137;-68
2023/11/09 08:19:34;;;;;;;1.30;0.80;;;;;;;9.37;63.77;98830.31;10519529;28;20043;-68
2023/11/09 08:24:36;;;;;;;1.45;0.98;;;;;;;9.46;63.60;98827.03;10534824;27;20589;-68
2023/11/09 08:29:38;;;;;;;1.27;0.98;;;;;;;9.57;63.39;98827.09;10521123;28;20047;-68
2023/11/09 08:34:40;;;;;;;1.08;0.88;;;;;;;9.62;63.42;98834.59;10517771;28;20040;-69
2023/11/09 08:39:43;;;;;;;2.55;1.20;;;;;;;9.63;63.44;98826.63;10518248;28;20105;-68
2023/11/09 08:44:45;;;;;;;1.17;0.90;;;;;;;9.63;64.11;98831.84;10518047;28;20135;-68
2023/11/09 08:49:47;;;;;;;1.15;0.80;;;;;;;9.68;63.43;98836.78;10518686;28;20048;-68
2023/11/09 08:54:52;;;;;;;1.48;0.90;;;;;;;9.65;63.60;98822.13;10519735;28;20172;-68
2023/11/09 08:59:54;;;;;;;1.02;0.93;;;;;;;9.76;63.69;98823.16;10500431;28;20292;-68
2023/11/09 09:04:56;;;;;;;1.90;1.48;;;;;;;9.84;63.54;98810.34;10517899;28;20048;-68
2023/11/09 09:09:59;;;;;;;1.48;1.00;;;;;;;9.84;63.54;98805.13;10518786;28;20044;-69
2023/11/09 09:15:01;;;;;;;1.42;1.20;;;;;;;10.01;63.24;98792.47;10516964;28;20399;-68
2023/11/09 09:20:07;;;;;;;1.17;1.08;;;;;;;10.08;63.10;98792.84;10517498;28;20459;-69
2023/11/09 09:25:14;;;;;;;1.00;0.90;;;;;;;10.15;63.17;98788.84;10500675;28;20040;-68
2023/11/09 09:30:18;;;;;;;1.40;0.90;;;;;;;10.12;63.17;98786.44;10516639;28;20090;-68
2023/11/09 09:35:23;;;;;;;0.70;0.70;;;;;;;10.06;63.12;98794.75;10518026;28;20203;-68
2023/11/09 09:40:32;;;;;;;0.68;0.60;;;;;;;10.09;63.23;98794.53;10515883;28;20040;-68
2023/11/09 09:45:56;;;;;;;0.68;0.65;;;;;;;10.20;63.41;98797.13;10501462;28;20054;-68
2023/11/09 09:51:00;;;;;;;0.77;0.65;;;;;;;10.24;62.91;98788.97;10498291;28;20062;-68
2023/11/09 09:56:03;;;;;;;0.70;0.70;;;;;;;10.23;63.30;98792.53;10517214;28;20645;-68
2023/11/09 10:01:06;;;;;;;0.85;0.85;;;;;;;10.33;63.27;98796.09;10495898;28;20055;-68
2023/11/09 10:06:11;;;;;;;1.13;0.70;;;;;;;10.47;63.22;98789.81;10513371;28;20463;-68
2023/11/09 10:11:15;;;;;;;1.38;1.10;;;;;;;10.47;62.99;98779.34;10532914;27;20062;-68
2023/11/09 10:16:20;;;;;;;1.40;0.90;;;;;;;10.66;62.69;98784.00;10517512;28;20079;-68
2023/11/09 10:21:25;;;;;;;1.13;0.85;;;;;;;10.67;62.56;98777.78;10518247;28;20055;-68
2023/11/09 10:26:40;;;;;;;4.57;1.20;;;;;;;10.73;62.59;98772.06;10516287;28;20131;-68
2023/11/09 10:31:44;;;;;;;3.67;2.08;;;;;;;10.65;62.58;98770.06;10517021;28;20319;-68
2023/11/09 10:36:47;;;;;;;1.85;1.10;;;;;;;10.74;62.75;98766.75;10517267;28;20454;-69
2023/11/09 10:41:52;;;;;;;1.17;0.95;;;;;;;10.81;62.81;98767.06;10514992;28;20428;-69
2023/11/09 10:46:59;;;;;;;4.47;0.80;;;;;;;10.86;62.57;98757.09;10512732;28;20047;-68
2023/11/09 10:52:10;;;;;;;1.05;0.80;;;;;;;10.89;62.40;98744.59;10515447;28;20424;-68
2023/11/09 10:57:13;;;;;;;0.60;0.60;;;;;;;10.76;62.73;98743.94;10514607;28;20085;-68
2023/11/09 11:02:27;;;;;;;1.02;0.80;;;;;;;10.69;62.76;98741.91;10496250;28;20048;-69
2023/11/09 11:07:34;;;;;;;0.40;0.40;;;;;;;10.80;62.69;98740.13;10493803;28;20109;-69
2023/11/09 11:18:12;;;;;;;0.40;0.40;;;;;;;10.71;63.03;98719.06;10545760;27;20125;-67
2023/11/09 11:23:37;;;;;;;1.08;0.82;;;;;;;10.72;62.87;98729.44;10328345;28;20185;-67
2023/11/09 11:28:42;;;;;;;0.57;0.57;;;;;;;10.57;63.23;98721.94;10499129;28;20044;-68
2023/11/09 11:34:07;;;;;;;0.70;0.70;;;;;;;10.78;63.11;98723.72;10529181;28;20054;-68
2023/11/09 11:39:36;;;;;;;0.77;0.70;;;;;;;10.96;63.20;98724.84;10546860;28;20055;-68
2023/11/09 11:44:38;;;;;;;0.75;0.40;;;;;;;11.15;62.42;98714.59;10536111;28;20157;-67
2023/11/09 11:49:56;;;;;;;0.63;0.50;;;;;;;11.11;62.58;98712.38;10538347;28;20252;-67
2023/11/09 11:55:00;;;;;;;0.50;0.50;;;;;;;11.25;62.65;98712.88;10541556;28;20052;-68
2023/11/09 12:00:10;;;;;;;0.47;0.47;;;;;;;11.39;62.27;98706.53;10522666;28;20373;-68
2023/11/09 12:05:15;;;;;;;0.40;0.40;;;;;;;11.43;62.19;98699.25;10519612;28;20105;-67
2023/11/09 12:10:21;;;;;;;0.47;0.47;;;;;;;11.14;62.51;98699.84;10540922;28;20040;-67
2023/11/09 12:15:28;;;;;;;0.90;0.77;;;;;;;11.04;62.45;98703.34;10536826;28;20047;-68
2023/11/09 12:20:30;;;;;;;0.32;0.32;;;;;;;11.20;62.62;98701.13;10540991;28;20683;-68
2023/11/09 12:25:49;;;;;;;0.57;0.57;;;;;;;11.19;62.95;98689.81;10527001;28;20460;-68
2023/11/09 12:30:51;;;;;;;1.17;0.77;;;;;;;11.24;62.65;98692.91;10513740;28;20043;-67
2023/11/09 12:36:03;;;;;;;0.75;0.70;;;;;;;11.27;62.68;98684.78;10514618;28;20052;-68
2023/11/09 12:41:06;;;;;;;1.33;1.02;;;;;;;11.24;62.81;98678.97;10509260;28;20051;-68
2023/11/09 12:46:14;;;;;;;2.40;1.52;;;;;;;11.29;62.94;98669.78;10507051;28;20395;-68
2023/11/09 12:51:21;;;;;;;4.38;1.70;;;;;;;11.21;63.00;98664.34;10501512;28;20044;-67
2023/11/09 12:56:24;;;;;;;2.53;1.42;;;;;;;11.21;63.21;98660.94;10512821;28;20048;-68
2023/11/09 13:01:37;;;;;;;4.63;1.98;;;;;;;11.38;62.85;98662.97;10509188;28;20388;-68
2023/11/09 13:06:40;;;;;;;1.67;1.13;;;;;;;11.45;62.96;98645.81;10507627;28;20062;-68
2023/11/09 13:11:43;;;;;;;0.90;0.73;;;;;;;11.70;62.44;98647.19;10506161;28;20040;-67
2023/11/09 13:16:45;;;;;;;1.20;0.90;;;;;;;11.85;62.22;98636.25;10505021;28;20060;-67
2023/11/09 13:21:49;;;;;;;2.63;0.98;;;;;;;11.82;62.34;98633.06;10492625;28;20039;-67
2023/11/09 13:26:52;;;;;;;0.55;0.55;;;;;;;11.91;62.31;98624.41;10510482;28;20043;-67
2023/11/09 13:31:56;;;;;;;1.23;0.55;;;;;;;11.88;62.18;98624.69;10507741;28;20172;-67
2023/11/09 13:37:00;;;;;;;0.40;0.40;;;;;;;11.74;62.29;98631.09;10509866;28;20055;-67
2023/11/09 13:42:11;;;;;;;0.50;0.50;;;;;;;11.78;62.31;98642.16;10488825;28;20039;-67
2023/11/09 13:47:13;;;;;;;0.50;0.50;;;;;;;11.80;62.00;98633.19;10506959;28;20054;-67
2023/11/09 13:52:34;;;;;;;0.73;0.38;;;;;;;11.77;61.86;98638.69;10507410;28;20047;-67
2023/11/09 13:57:40;;;;;;;1.20;0.93;;;;;;;11.82;61.64;98636.53;10510917;28;20052;-67
2023/11/09 14:02:42;;;;;;;0.68;0.60;;;;;;;11.79;61.46;98642.00;10502383;28;20040;-67
2023/11/09 14:07:48;;;;;;;0.70;0.60;;;;;;;11.81;61.56;98639.25;10508455;28;20056;-67
2023/11/09 14:12:50;;;;;;;2.00;1.38;;;;;;;11.77;61.51;98643.09;10508134;28;20040;-68
2023/11/09 14:18:06;;;;;;;0.63;0.40;;;;;;;11.70;61.48;98649.81;10510815;28;20046;-68
2023/11/09 14:23:11;;;;;;;1.95;0.68;;;;;;;11.71;61.48;98651.47;10497928;28;20392;-68
2023/11/09 14:28:13;;;;;;;0.70;0.70;;;;;;;11.61;61.16;98654.03;10479874;28;20036;-68
2023/11/09 14:33:21;;;;;;;1.27;0.82;;;;;;;11.44;60.99;98654.59;10508080;28;20094;-68
2023/11/09 14:38:25;;;;;;;1.17;0.75;;;;;;;11.37;60.69;98660.50;10493207;28;20129;-68
2023/11/09 14:43:29;;;;;;;0.68;0.60;;;;;;;11.18;59.94;98656.78;10485039;28;20036;-68
2023/11/09 14:48:35;;;;;;;1.63;1.00;;;;;;;11.19;60.50;98655.81;10507667;28;20042;-68
2023/11/09 14:53:38;;;;;;;1.88;0.82;;;;;;;11.13;60.31;98648.47;10509480;28;20573;-68
2023/11/09 14:58:44;;;;;;;1.25;0.85;;;;;;;11.10;60.31;98646.13;10492160;28;20044;-68
2023/11/09 15:03:46;;;;;;;3.20;1.13;;;;;;;11.09;60.30;98659.31;10489775;28;20070;-68
2023/11/09 15:08:49;;;;;;;4.88;1.13;;;;;;;10.93;60.42;98659.69;10492647;28;20050;-68
2023/11/09 15:13:54;;;;;;;2.67;0.98;;;;;;;10.87;60.29;98652.34;10512232;28;20051;-68
2023/11/09 15:18:59;;;;;;;2.22;1.00;;;;;;;10.87;60.39;98641.88;10492716;28;20056;-68
2023/11/09 15:24:09;;;;;;;2.30;1.60;;;;;;;10.81;60.71;98633.69;10511724;28;20533;-68
2023/11/09 15:29:11;;;;;;;4.18;1.65;;;;;;;10.65;60.35;98636.72;10475044;28;20063;-68
2023/11/09 15:34:15;;;;;;;1.88;0.93;;;;;;;10.54;60.32;98644.63;10509916;28;20047;-67
2023/11/09 15:39:19;;;;;;;4.22;1.02;;;;;;;10.51;60.66;98644.84;10508504;28;20488;-68
2023/11/09 15:44:40;;;;;;;2.35;1.02;;;;;;;10.44;60.38;98643.66;10509293;28;20052;-68
2023/11/09 15:49:44;;;;;;;3.15;1.05;;;;;;;10.41;60.55;98638.69;10511129;28;20041;-68
2023/11/09 15:54:50;;;;;;;2.13;1.10;;;;;;;10.30;60.31;98630.84;10509847;28;20040;-68
2023/11/09 15:59:55;;;;;;;1.95;1.27;;;;;;;10.31;60.43;98622.91;10507022;28;20535;-68
2023/11/09 16:05:12;;;;;;;5.63;2.28;;;;;;;10.28;60.28;98627.53;10512335;28;20041;-68
2023/11/09 16:10:48;;;;;;;4.47;1.50;;;;;;;10.21;60.26;98610.69;10516282;28;20315;-68
2023/11/09 16:15:44;;;;;;;2.30;1.55;;;;;;;10.17;60.38;98609.28;10511960;28;20491;-64
2023/11/09 16:20:46;;;;;;;3.75;1.58;;;;;;;10.06;60.17;98604.06;10496500;28;20051;-65
2023/11/09 16:25:48;;;;;;;1.45;1.30;;;;;;;9.96;60.16;98593.50;10514291;28;20075;-64
2023/11/09 16:30:51;;;;;;;2.80;1.42;;;;;;;10.03;60.19;98583.41;10514272;28;20393;-64
2023/11/09 16:35:53;;;;;;;4.03;1.90;;;;;;;9.99;60.32;98574.16;10496896;28;20231;-65
2023/11/09 16:40:55;;;;;;;10.02;2.28;;;;;;;9.87;60.45;98585.56;10499119;28;20407;-63
2023/11/09 16:45:59;;;;;;;3.30;1.80;;;;;;;9.75;60.56;98587.34;10500166;28;20040;-65
2023/11/09 16:51:01;;;;;;;9.10;2.40;;;;;;;9.69;60.55;98594.84;10488947;28;20113;-65
2023/11/09 16:56:08;;;;;;;4.75;1.63;;;;;;;9.58;60.74;98593.81;10502064;28;20248;-64
2023/11/09 17:01:11;;;;;;;6.70;1.30;;;;;;;9.57;60.64;98594.78;10511488;28;20515;-65
2023/11/09 17:06:13;;;;;;;3.65;1.65;;;;;;;9.58;60.57;98604.25;10492263;28;20039;-64
2023/11/09 17:11:16;;;;;;;2.15;1.10;;;;;;;9.56;60.61;98611.38;10514927;28;20044;-65
2023/11/09 17:16:19;;;;;;;3.60;1.40;;;;;;;9.57;60.72;98605.22;10515398;28;20427;-64
2023/11/09 17:21:24;;;;;;;3.10;1.30;;;;;;;9.44;60.53;98612.31;10518809;28;20048;-62
2023/11/09 17:26:27;;;;;;;2.22;1.23;;;;;;;9.35;60.69;98626.06;10514751;28;20048;-62
2023/11/09 17:31:29;;;;;;;3.33;1.30;;;;;;;9.21;61.04;98613.22;10516939;28;20044;-63
2023/11/09 17:36:31;;;;;;;2.33;1.27;;;;;;;9.18;61.03;98607.44;10518338;28;20040;-63
2023/11/09 17:41:33;;;;;;;2.72;0.90;;;;;;;9.14;61.42;98608.56;10515857;28;20081;-63
2023/11/09 17:46:36;;;;;;;4.45;2.00;;;;;;;9.18;61.28;98591.78;10495804;28;20090;-63
2023/11/09 17:51:38;;;;;;;3.78;1.38;;;;;;;9.19;61.51;98591.66;10514526;28;20404;-64
2023/11/09 17:56:40;;;;;;;2.25;1.13;;;;;;;9.31;61.47;98606.38;10496356;28;20135;-64
2023/11/09 18:01:44;;;;;;;1.40;0.95;;;;;;;9.34;61.15;98603.53;10515950;28;20043;-63
2023/11/09 18:06:46;;;;;;;4.15;1.33;;;;;;;9.50;60.92;98585.75;10516420;28;20040;-63
2023/11/09 18:11:48;;;;;;;2.85;0.93;;;;;;;9.44;61.02;98565.34;10498783;28;20514;-63
2023/11/09 18:16:55;;;;;;;3.38;1.20;;;;;;;9.38;61.17;98570.22;10515018;28;20512;-63
2023/11/09 18:22:04;;;;;;;4.63;1.50;;;;;;;9.33;61.15;98559.28;10512058;28;20762;-64
2023/11/09 18:27:06;;;;;;;3.45;1.75;;;;;;;9.41;61.01;98552.53;10508446;28;20150;-64
2023/11/09 18:32:11;;;;;;;2.38;1.33;;;;;;;9.47;60.94;98552.06;10489187;28;20193;-64
2023/11/09 18:37:15;;;;;;;4.05;1.50;;;;;;;9.48;61.14;98555.53;10504163;28;20044;-64
2023/11/09 18:42:17;;;;;;;3.60;1.10;;;;;;;9.51;60.78;98545.66;10503912;28;20127;-64
2023/11/09 18:47:21;;;;;;;2.92;1.50;;;;;;;9.64;60.74;98525.50;10510431;28;20476;-64
2023/11/09 18:52:24;;;;;;;4.47;1.25;;;;;;;9.68;60.69;98513.06;10473031;28;20153;-64
2023/11/09 18:57:25;;;;;;;3.00;1.52;;;;;;;9.53;60.88;98495.97;10513208;28;20503;-64
2023/11/09 19:02:27;;;;;;;3.03;1.40;;;;;;;9.59;61.20;98485.88;10512755;28;20036;-63
2023/11/09 19:07:29;;;;;;;5.65;1.30;;;;;;;9.61;61.03;98480.53;10513932;28;20043;-64
2023/11/09 19:12:33;;;;;;;2.53;1.63;;;;;;;9.56;60.96;98474.84;10514405;28;20060;-64
2023/11/09 19:17:36;;;;;;;3.28;1.25;;;;;;;9.49;61.17;98469.28;10490522;28;20056;-64
2023/11/09 19:22:41;;;;;;;4.97;2.38;;;;;;;9.52;61.42;98466.41;10506258;28;20054;-64
2023/11/09 19:27:44;;;;;;;5.57;2.60;;;;;;;9.62;61.35;98458.72;10490662;28;20040;-64
2023/11/09 19:32:47;;;;;;;4.88;2.03;;;;;;;9.62;61.34;98451.72;10511460;28;20048;-64
2023/11/09 19:37:49;;;;;;;2.83;1.42;;;;;;;9.68;61.14;98452.19;10517636;28;20139;-64
2023/11/09 19:42:53;;;;;;;5.43;1.80;;;;;;;9.71;60.95;98460.59;10501275;28;20129;-64
2023/11/09 19:47:54;;;;;;;3.95;2.10;;;;;;;9.79;60.95;98454.78;10521933;28;20826;-64
2023/11/09 19:52:56;;;;;;;5.60;1.85;;;;;;;9.71;61.08;98463.22;10521381;28;20036;-64
2023/11/09 19:57:58;;;;;;;5.50;2.55;;;;;;;9.74;61.00;98456.94;10501605;28;20044;-64
2023/11/09 20:03:01;;;;;;;6.68;2.50;;;;;;;9.75;60.96;98456.00;10521278;28;20040;-64
2023/11/09 20:08:09;;;;;;;7.50;2.25;;;;;;;9.89;60.94;98440.84;10519981;28;20047;-64
2023/11/09 20:13:13;;;;;;;4.43;2.33;;;;;;;9.88;61.12;98435.75;10518119;28;20058;-64
2023/11/09 20:18:16;;;;;;;4.70;1.88;;;;;;;10.00;61.02;98425.16;10503277;28;20208;-64
2023/11/09 20:23:18;;;;;;;5.88;1.60;;;;;;;9.96;60.93;98421.16;10520232;28;20561;-64
2023/11/09 20:28:20;;;;;;;7.50;3.33;;;;;;;10.00;60.83;98411.25;10519543;28;20048;-64
2023/11/09 20:33:22;;;;;;;6.38;2.17;;;;;;;9.99;60.85;98404.41;10518705;28;20075;-64
2023/11/09 20:38:24;;;;;;;3.97;1.83;;;;;;;9.88;60.94;98400.03;10519633;28;20493;-65
2023/11/09 20:43:26;;;;;;;2.97;1.20;;;;;;;9.96;60.38;98405.47;10518255;28;20043;-64
2023/11/09 20:48:29;;;;;;;2.60;1.48;;;;;;;9.95;60.33;98406.41;10518292;28;20455;-64
2023/11/09 20:53:32;;;;;;;3.60;1.70;;;;;;;9.85;59.86;98395.06;10500234;28;20519;-64
2023/11/09 20:58:36;;;;;;;1.98;1.10;;;;;;;10.03;60.19;98392.75;10519947;28;20048;-64
2023/11/09 21:03:39;;;;;;;2.25;1.20;;;;;;;10.01;59.80;98392.84;10516988;28;20050;-64
2023/11/09 21:08:42;;;;;;;1.88;1.15;;;;;;;9.96;60.04;98412.47;10513563;28;20254;-64
2023/11/09 21:13:44;;;;;;;2.33;1.17;;;;;;;10.08;60.46;98406.25;10516478;28;20048;-64
2023/11/09 21:18:46;;;;;;;0.88;0.73;;;;;;;9.52;61.13;98442.13;10518980;28;20138;-64
2023/11/09 21:23:48;;;;;;;1.15;0.93;;;;;;;9.16;62.55;98437.97;10514623;28;20040;-64
2023/11/09 21:28:50;;;;;;;1.45;1.00;;;;;;;8.99;62.89;98428.03;10514696;28;20154;-65
2023/11/09 21:33:53;;;;;;;2.97;1.10;;;;;;;9.03;63.35;98436.44;10516881;28;20055;-65
2023/11/09 21:38:59;;;;;;;1.02;0.70;;;;;;;8.97;63.51;98426.50;10515374;28;20106;-65
2023/11/09 21:44:01;;;;;;;1.13;0.88;;;;;;;8.85;64.14;98423.06;10514061;28;20048;-64
2023/11/09 21:49:03;;;;;;;1.27;0.65;;;;;;;8.84;64.23;98434.41;10497522;28;20055;-64
2023/11/09 21:54:06;;;;;;;6.55;0.70;;;;;;;8.92;64.43;98439.88;10510631;28;20043;-64
2023/11/09 21:59:11;;;;;;;0.60;0.57;;;;;;;8.68;65.20;98433.91;10493155;28;20036;-64
2023/11/09 22:04:13;;;;;;;0.60;0.60;;;;;;;8.79;64.71;98403.47;10501632;28;20050;-63
2023/11/09 22:09:16;;;;;;;0.82;0.60;;;;;;;8.74;64.80;98391.75;10495638;28;20071;-63
2023/11/09 22:14:20;;;;;;;0.85;0.60;;;;;;;8.66;64.90;98386.28;10514685;28;20062;-63
2023/11/09 22:19:23;;;;;;;1.00;0.80;;;;;;;8.58;65.42;98391.25;10478375;28;20058;-63
2023/11/09 22:24:28;;;;;;;0.70;0.70;;;;;;;8.51;65.40;98397.88;10515129;28;20503;-63
2023/11/09 22:29:32;;;;;;;2.47;1.13;;;;;;;8.43;65.61;98395.00;10483019;28;20056;-63
2023/11/09 22:34:34;;;;;;;1.10;0.68;;;;;;;8.35;65.99;98399.97;10515762;28;20048;-64
2023/11/09 22:39:37;;;;;;;0.63;0.63;;;;;;;8.40;66.10;98403.91;10479202;28;20074;-63
2023/11/09 22:44:39;;;;;;;0.95;0.65;;;;;;;8.44;65.97;98407.94;10514860;28;20407;-63
2023/11/09 22:49:41;;;;;;;0.93;0.60;;;;;;;8.40;65.98;98416.94;10512994;28;20048;-63
2023/11/09 22:54:46;;;;;;;1.15;0.65;;;;;;;8.41;65.80;98413.38;10512838;28;21387;-63
2023/11/09 22:59:48;;;;;;;0.88;0.57;;;;;;;8.52;65.65;98405.59;10493853;28;20078;-63
2023/11/09 23:04:50;;;;;;;4.07;1.35;;;;;;;8.48;65.37;98406.78;10514584;28;20040;-63
2023/11/09 23:09:52;;;;;;;0.90;0.63;;;;;;;8.56;65.28;98411.41;10514050;28;20155;-63
2023/11/09 23:14:54;;;;;;;0.47;0.40;;;;;;;8.73;65.18;98392.69;10512687;28;20138;-63
2023/11/09 23:19:55;;;;;;;0.85;0.65;;;;;;;8.77;64.81;98394.13;10475878;28;20046;-63
2023/11/09 23:25:11;;;;;;;2.92;0.57;;;;;;;8.77;64.72;98374.09;10509073;28;20047;-63
2023/11/09 23:30:15;;;;;;;0.52;0.50;;;;;;;8.74;64.92;98381.31;10511275;28;20952;-62
2023/11/09 23:35:18;;;;;;;1.27;0.40;;;;;;;8.61;65.02;98394.47;10513997;28;20467;-62
2023/11/09 23:40:20;;;;;;;1.10;0.45;;;;;;;8.67;64.72;98394.00;10511240;28;20391;-63
2023/11/09 23:45:22;;;;;;;0.55;0.40;;;;;;;8.56;64.39;98374.91;10512918;28;20055;-63
2023/11/09 23:50:25;;;;;;;1.08;0.90;;;;;;;8.36;64.22;98381.66;10512112;28;20040;-62
2023/11/09 23:55:27;;;;;;;0.80;0.45;;;;;;;8.27;64.77;98391.91;10512822;28;20040;-63
